Accueil
METAR-TAF:

METAR-TAF

Aéroports :

Aéroport de Podgorica

Podgorica, Monténégro

latitude: 42-26N, longitude: 019-17E, altitude: 53 m

Observation

Le bulletin a été fait il y a 15 minutes, à 14:00 UTC
Vent 4 kt de sud, variant entre sud-est et sud/sud-ouest
Température 21°C
Humidité 40%
Pression 1026 hPa
Visibilité 10 km ou plus
Quelques nuages à une hauteur de 4000 ft

METAR: LYPG 191400Z 17004KT 130V210 9999 FEW040 21/07 Q1026 NOSIG

Heure: 16:15 (14:15 UTC)

Prévision

Le bulletin a été fait il y a 3 heures et 15 minutes, à 11:00 UTC
Prévision valable du 19 à 12 UTC au 20 à 12 UTC
Vent 6 kt de sud/sud-est
Visibilité 10 km ou plus
Quelques nuages à une hauteur de 4000 ft

TAF: LYPG 191100Z 1912/2012 15006KT 9999 FEW040 TX22/1913Z TN09/2005Z

Observations et prévisions météorologiques de plus de 4000 aéroports (messages METAR et TAF).

Les stations disponibles sont représentées par des disques jaunes et rouges sur la carte.

Passer la souris dessus pour voir le nom de la station.

Cliquer dessus pour voir les observations et prévisions météorologiques.

Pour changer de carte: cliquez sur les boutons verts avec une croix noire pour zoomer, sur le bouton vert avec un tiret pour effectuer un zoom arrière, ou sur les flèches vertes pour les cartes adjacentes.


METAR-TAF: